sensor_id;sensor_type;location;lat;lon;timestamp;P1;durP1;ratioP1;P2;durP2;ratioP2
35847;SDS011;22332;51.954;20.118;2024-03-02T00:02:40;26.50;;;15.90;;
35847;SDS011;22332;51.954;20.118;2024-03-02T00:05:50;24.90;;;16.80;;
35847;SDS011;22332;51.954;20.118;2024-03-02T00:08:58;31.30;;;22.30;;
35847;SDS011;22332;51.954;20.118;2024-03-02T00:12:04;27.50;;;18.70;;
35847;SDS011;22332;51.954;20.118;2024-03-02T00:15:26;27.90;;;16.70;;
35847;SDS011;22332;51.954;20.118;2024-03-02T00:18:51;21.60;;;14.60;;
35847;SDS011;22332;51.954;20.118;2024-03-02T00:21:57;25.70;;;17.20;;
35847;SDS011;22332;51.954;20.118;2024-03-02T00:25:07;21.90;;;15.20;;
35847;SDS011;22332;51.954;20.118;2024-03-02T00:28:17;26.60;;;17.80;;
35847;SDS011;22332;51.954;20.118;2024-03-02T00:31:25;27.20;;;16.90;;
35847;SDS011;22332;51.954;20.118;2024-03-02T00:34:31;24.70;;;18.00;;
35847;SDS011;22332;51.954;20.118;2024-03-02T00:37:37;23.00;;;15.00;;
35847;SDS011;22332;51.954;20.118;2024-03-02T00:40:43;20.90;;;13.80;;
35847;SDS011;22332;51.954;20.118;2024-03-02T00:43:52;22.10;;;14.80;;
35847;SDS011;22332;51.954;20.118;2024-03-02T00:47:03;22.60;;;15.20;;
35847;SDS011;22332;51.954;20.118;2024-03-02T00:50:09;24.00;;;16.00;;
35847;SDS011;22332;51.954;20.118;2024-03-02T00:53:14;23.30;;;15.80;;
35847;SDS011;22332;51.954;20.118;2024-03-02T00:56:21;24.70;;;16.50;;
35847;SDS011;22332;51.954;20.118;2024-03-02T00:59:27;23.50;;;14.90;;
35847;SDS011;22332;51.954;20.118;2024-03-02T01:02:32;21.10;;;13.30;;
35847;SDS011;22332;51.954;20.118;2024-03-02T01:05:39;22.80;;;15.30;;
35847;SDS011;22332;51.954;20.118;2024-03-02T01:08:46;22.20;;;15.00;;
35847;SDS011;22332;51.954;20.118;2024-03-02T01:11:54;25.80;;;16.00;;
35847;SDS011;22332;51.954;20.118;2024-03-02T01:14:59;22.80;;;15.90;;
35847;SDS011;22332;51.954;20.118;2024-03-02T01:18:07;21.10;;;15.10;;
35847;SDS011;22332;51.954;20.118;2024-03-02T01:21:12;23.80;;;14.70;;
35847;SDS011;22332;51.954;20.118;2024-03-02T01:24:19;20.50;;;13.00;;
35847;SDS011;22332;51.954;20.118;2024-03-02T01:27:24;24.20;;;15.10;;
35847;SDS011;22332;51.954;20.118;2024-03-02T01:30:31;24.70;;;16.20;;
35847;SDS011;22332;51.954;20.118;2024-03-02T01:33:36;24.20;;;16.30;;
35847;SDS011;22332;51.954;20.118;2024-03-02T01:36:42;23.00;;;16.10;;
35847;SDS011;22332;51.954;20.118;2024-03-02T01:39:47;22.00;;;15.60;;
35847;SDS011;22332;51.954;20.118;2024-03-02T01:42:53;22.70;;;15.50;;
35847;SDS011;22332;51.954;20.118;2024-03-02T01:46:00;21.10;;;14.20;;
35847;SDS011;22332;51.954;20.118;2024-03-02T01:49:06;26.50;;;17.50;;
35847;SDS011;22332;51.954;20.118;2024-03-02T01:52:12;22.20;;;15.60;;
35847;SDS011;22332;51.954;20.118;2024-03-02T01:55:18;22.30;;;15.80;;
35847;SDS011;22332;51.954;20.118;2024-03-02T01:58:23;23.40;;;15.60;;
35847;SDS011;22332;51.954;20.118;2024-03-02T02:01:29;21.50;;;15.50;;
35847;SDS011;22332;51.954;20.118;2024-03-02T02:04:35;24.00;;;15.40;;
35847;SDS011;22332;51.954;20.118;2024-03-02T02:07:41;21.60;;;13.80;;
35847;SDS011;22332;51.954;20.118;2024-03-02T02:10:47;22.50;;;15.50;;
35847;SDS011;22332;51.954;20.118;2024-03-02T02:13:52;22.90;;;16.30;;
35847;SDS011;22332;51.954;20.118;2024-03-02T02:16:59;25.50;;;17.70;;
35847;SDS011;22332;51.954;20.118;2024-03-02T02:20:05;22.90;;;16.10;;
35847;SDS011;22332;51.954;20.118;2024-03-02T02:23:12;24.60;;;17.10;;
35847;SDS011;22332;51.954;20.118;2024-03-02T02:26:18;29.30;;;18.60;;
35847;SDS011;22332;51.954;20.118;2024-03-02T02:29:23;21.60;;;14.60;;
35847;SDS011;22332;51.954;20.118;2024-03-02T02:32:29;23.10;;;15.60;;
35847;SDS011;22332;51.954;20.118;2024-03-02T02:35:34;32.80;;;20.50;;
35847;SDS011;22332;51.954;20.118;2024-03-02T02:38:42;31.70;;;19.30;;
35847;SDS011;22332;51.954;20.118;2024-03-02T02:41:50;23.70;;;16.80;;
35847;SDS011;22332;51.954;20.118;2024-03-02T02:44:56;32.90;;;20.60;;
35847;SDS011;22332;51.954;20.118;2024-03-02T02:48:01;40.60;;;22.10;;
35847;SDS011;22332;51.954;20.118;2024-03-02T02:51:08;30.50;;;17.90;;
35847;SDS011;22332;51.954;20.118;2024-03-02T02:54:14;27.50;;;18.00;;
35847;SDS011;22332;51.954;20.118;2024-03-02T02:57:20;34.40;;;20.40;;
35847;SDS011;22332;51.954;20.118;2024-03-02T03:00:25;26.00;;;17.20;;
35847;SDS011;22332;51.954;20.118;2024-03-02T03:03:31;30.40;;;21.50;;
35847;SDS011;22332;51.954;20.118;2024-03-02T03:06:37;28.00;;;18.60;;
35847;SDS011;22332;51.954;20.118;2024-03-02T03:09:42;27.60;;;17.20;;
35847;SDS011;22332;51.954;20.118;2024-03-02T03:12:48;22.40;;;14.80;;
35847;SDS011;22332;51.954;20.118;2024-03-02T03:15:54;31.60;;;17.10;;
35847;SDS011;22332;51.954;20.118;2024-03-02T03:19:00;34.30;;;20.90;;
35847;SDS011;22332;51.954;20.118;2024-03-02T03:22:06;27.60;;;17.20;;
35847;SDS011;22332;51.954;20.118;2024-03-02T03:25:11;24.80;;;16.20;;
35847;SDS011;22332;51.954;20.118;2024-03-02T03:28:17;28.60;;;18.40;;
35847;SDS011;22332;51.954;20.118;2024-03-02T03:31:23;26.00;;;17.60;;
35847;SDS011;22332;51.954;20.118;2024-03-02T03:34:28;28.90;;;19.40;;
35847;SDS011;22332;51.954;20.118;2024-03-02T03:37:36;25.50;;;17.10;;
35847;SDS011;22332;51.954;20.118;2024-03-02T03:40:41;22.10;;;15.40;;
35847;SDS011;22332;51.954;20.118;2024-03-02T03:43:47;23.00;;;15.10;;
35847;SDS011;22332;51.954;20.118;2024-03-02T03:46:53;22.60;;;15.30;;
35847;SDS011;22332;51.954;20.118;2024-03-02T03:49:59;25.50;;;17.50;;
35847;SDS011;22332;51.954;20.118;2024-03-02T03:53:07;24.00;;;15.90;;
35847;SDS011;22332;51.954;20.118;2024-03-02T03:56:13;24.10;;;16.90;;
35847;SDS011;22332;51.954;20.118;2024-03-02T03:59:18;23.70;;;17.40;;
35847;SDS011;22332;51.954;20.118;2024-03-02T04:02:24;22.90;;;16.20;;
35847;SDS011;22332;51.954;20.118;2024-03-02T04:05:29;17.60;;;12.20;;
35847;SDS011;22332;51.954;20.118;2024-03-02T04:08:35;24.80;;;16.30;;
35847;SDS011;22332;51.954;20.118;2024-03-02T04:11:41;23.30;;;15.40;;
35847;SDS011;22332;51.954;20.118;2024-03-02T04:14:47;22.90;;;16.00;;
35847;SDS011;22332;51.954;20.118;2024-03-02T04:17:52;20.00;;;15.00;;
35847;SDS011;22332;51.954;20.118;2024-03-02T04:20:58;24.80;;;16.50;;
35847;SDS011;22332;51.954;20.118;2024-03-02T04:24:04;25.70;;;17.40;;
35847;SDS011;22332;51.954;20.118;2024-03-02T04:27:11;25.30;;;17.30;;
35847;SDS011;22332;51.954;20.118;2024-03-02T04:30:16;23.30;;;15.60;;
35847;SDS011;22332;51.954;20.118;2024-03-02T04:33:22;22.00;;;14.80;;
35847;SDS011;22332;51.954;20.118;2024-03-02T04:36:27;30.60;;;20.50;;
35847;SDS011;22332;51.954;20.118;2024-03-02T04:39:34;24.80;;;17.60;;
35847;SDS011;22332;51.954;20.118;2024-03-02T04:42:39;24.60;;;17.00;;
35847;SDS011;22332;51.954;20.118;2024-03-02T04:45:45;24.80;;;17.00;;
35847;SDS011;22332;51.954;20.118;2024-03-02T04:48:51;26.10;;;17.50;;
35847;SDS011;22332;51.954;20.118;2024-03-02T04:51:59;25.80;;;17.10;;
35847;SDS011;22332;51.954;20.118;2024-03-02T04:55:05;21.90;;;14.80;;
35847;SDS011;22332;51.954;20.118;2024-03-02T04:58:27;24.50;;;16.90;;
35847;SDS011;22332;51.954;20.118;2024-03-02T05:01:33;27.60;;;18.20;;
35847;SDS011;22332;51.954;20.118;2024-03-02T05:04:38;25.50;;;17.50;;
35847;SDS011;22332;51.954;20.118;2024-03-02T05:07:44;28.00;;;18.80;;
35847;SDS011;22332;51.954;20.118;2024-03-02T05:10:50;29.30;;;19.60;;
35847;SDS011;22332;51.954;20.118;2024-03-02T05:13:55;28.10;;;17.90;;
35847;SDS011;22332;51.954;20.118;2024-03-02T05:17:01;22.40;;;15.00;;
35847;SDS011;22332;51.954;20.118;2024-03-02T05:20:07;24.40;;;16.70;;
35847;SDS011;22332;51.954;20.118;2024-03-02T05:23:14;28.00;;;19.40;;
35847;SDS011;22332;51.954;20.118;2024-03-02T05:26:19;29.40;;;21.10;;
35847;SDS011;22332;51.954;20.118;2024-03-02T05:29:25;28.00;;;19.70;;
35847;SDS011;22332;51.954;20.118;2024-03-02T05:32:31;29.10;;;20.40;;
35847;SDS011;22332;51.954;20.118;2024-03-02T05:35:36;29.50;;;20.90;;
35847;SDS011;22332;51.954;20.118;2024-03-02T05:38:42;25.00;;;17.10;;
35847;SDS011;22332;51.954;20.118;2024-03-02T05:41:48;27.20;;;18.20;;
35847;SDS011;22332;51.954;20.118;2024-03-02T05:44:54;26.40;;;18.00;;
35847;SDS011;22332;51.954;20.118;2024-03-02T05:47:59;27.20;;;17.60;;
35847;SDS011;22332;51.954;20.118;2024-03-02T05:51:05;27.30;;;18.60;;
35847;SDS011;22332;51.954;20.118;2024-03-02T05:54:11;28.80;;;19.40;;
35847;SDS011;22332;51.954;20.118;2024-03-02T05:57:16;30.00;;;19.00;;
35847;SDS011;22332;51.954;20.118;2024-03-02T06:00:36;27.50;;;16.90;;
35847;SDS011;22332;51.954;20.118;2024-03-02T06:03:42;27.70;;;17.60;;
35847;SDS011;22332;51.954;20.118;2024-03-02T06:06:47;28.50;;;20.40;;
35847;SDS011;22332;51.954;20.118;2024-03-02T06:09:53;28.60;;;19.70;;
35847;SDS011;22332;51.954;20.118;2024-03-02T06:12:58;29.60;;;18.90;;
35847;SDS011;22332;51.954;20.118;2024-03-02T06:16:04;30.30;;;20.00;;
35847;SDS011;22332;51.954;20.118;2024-03-02T06:19:11;28.40;;;19.60;;
35847;SDS011;22332;51.954;20.118;2024-03-02T06:22:16;27.70;;;17.40;;
35847;SDS011;22332;51.954;20.118;2024-03-02T06:25:22;26.40;;;17.30;;
35847;SDS011;22332;51.954;20.118;2024-03-02T06:28:28;28.80;;;17.80;;
35847;SDS011;22332;51.954;20.118;2024-03-02T06:31:33;29.20;;;20.10;;
35847;SDS011;22332;51.954;20.118;2024-03-02T06:34:39;29.60;;;20.40;;
35847;SDS011;22332;51.954;20.118;2024-03-02T06:37:44;31.50;;;21.30;;
35847;SDS011;22332;51.954;20.118;2024-03-02T06:40:50;30.00;;;20.50;;
35847;SDS011;22332;51.954;20.118;2024-03-02T06:43:55;31.40;;;20.80;;
35847;SDS011;22332;51.954;20.118;2024-03-02T06:47:02;27.40;;;16.70;;
35847;SDS011;22332;51.954;20.118;2024-03-02T06:50:09;34.70;;;21.60;;
35847;SDS011;22332;51.954;20.118;2024-03-02T06:53:14;33.50;;;22.30;;
35847;SDS011;22332;51.954;20.118;2024-03-02T06:56:20;34.10;;;23.60;;
35847;SDS011;22332;51.954;20.118;2024-03-02T06:59:26;34.40;;;23.50;;
35847;SDS011;22332;51.954;20.118;2024-03-02T07:02:31;33.80;;;22.20;;
35847;SDS011;22332;51.954;20.118;2024-03-02T07:05:37;34.20;;;22.90;;
35847;SDS011;22332;51.954;20.118;2024-03-02T07:08:42;31.50;;;20.80;;
35847;SDS011;22332;51.954;20.118;2024-03-02T07:11:48;34.10;;;23.40;;
35847;SDS011;22332;51.954;20.118;2024-03-02T07:14:53;34.40;;;22.90;;
35847;SDS011;22332;51.954;20.118;2024-03-02T07:18:14;38.60;;;26.60;;
35847;SDS011;22332;51.954;20.118;2024-03-02T07:21:20;41.80;;;25.10;;
35847;SDS011;22332;51.954;20.118;2024-03-02T07:24:26;40.00;;;25.10;;
35847;SDS011;22332;51.954;20.118;2024-03-02T07:27:32;35.90;;;22.60;;
35847;SDS011;22332;51.954;20.118;2024-03-02T07:30:38;31.60;;;21.10;;
35847;SDS011;22332;51.954;20.118;2024-03-02T07:33:45;37.60;;;22.60;;
35847;SDS011;22332;51.954;20.118;2024-03-02T07:36:50;33.50;;;22.50;;
35847;SDS011;22332;51.954;20.118;2024-03-02T07:39:56;34.50;;;23.00;;
35847;SDS011;22332;51.954;20.118;2024-03-02T07:43:02;34.90;;;22.70;;
35847;SDS011;22332;51.954;20.118;2024-03-02T07:46:07;35.70;;;24.20;;
35847;SDS011;22332;51.954;20.118;2024-03-02T07:49:15;34.00;;;22.00;;
35847;SDS011;22332;51.954;20.118;2024-03-02T07:52:23;33.50;;;20.20;;
35847;SDS011;22332;51.954;20.118;2024-03-02T07:55:31;34.80;;;22.30;;
35847;SDS011;22332;51.954;20.118;2024-03-02T07:58:47;37.40;;;24.00;;
35847;SDS011;22332;51.954;20.118;2024-03-02T08:01:53;34.30;;;23.20;;
35847;SDS011;22332;51.954;20.118;2024-03-02T08:04:59;35.20;;;23.30;;
35847;SDS011;22332;51.954;20.118;2024-03-02T08:08:05;35.40;;;24.20;;
35847;SDS011;22332;51.954;20.118;2024-03-02T08:11:11;38.20;;;24.50;;
35847;SDS011;22332;51.954;20.118;2024-03-02T08:14:16;35.90;;;23.20;;
35847;SDS011;22332;51.954;20.118;2024-03-02T08:17:25;33.50;;;22.40;;
35847;SDS011;22332;51.954;20.118;2024-03-02T08:20:30;38.20;;;25.20;;
35847;SDS011;22332;51.954;20.118;2024-03-02T08:23:36;40.20;;;26.10;;
35847;SDS011;22332;51.954;20.118;2024-03-02T08:26:43;35.20;;;23.60;;
35847;SDS011;22332;51.954;20.118;2024-03-02T08:29:49;35.30;;;23.80;;
35847;SDS011;22332;51.954;20.118;2024-03-02T08:32:54;38.20;;;25.50;;
35847;SDS011;22332;51.954;20.118;2024-03-02T08:36:00;40.10;;;23.90;;
35847;SDS011;22332;51.954;20.118;2024-03-02T08:39:07;38.30;;;22.40;;
35847;SDS011;22332;51.954;20.118;2024-03-02T08:42:18;38.80;;;24.30;;
35847;SDS011;22332;51.954;20.118;2024-03-02T08:45:23;37.00;;;24.20;;
35847;SDS011;22332;51.954;20.118;2024-03-02T08:48:29;38.30;;;24.80;;
35847;SDS011;22332;51.954;20.118;2024-03-02T08:51:34;43.00;;;27.30;;
35847;SDS011;22332;51.954;20.118;2024-03-02T08:54:40;39.40;;;26.10;;
35847;SDS011;22332;51.954;20.118;2024-03-02T08:57:46;40.40;;;25.90;;
35847;SDS011;22332;51.954;20.118;2024-03-02T09:00:54;38.00;;;24.60;;
35847;SDS011;22332;51.954;20.118;2024-03-02T09:04:00;36.40;;;22.10;;
35847;SDS011;22332;51.954;20.118;2024-03-02T09:07:05;42.50;;;25.00;;
35847;SDS011;22332;51.954;20.118;2024-03-02T09:10:11;38.90;;;25.30;;
35847;SDS011;22332;51.954;20.118;2024-03-02T09:13:16;38.50;;;25.10;;
35847;SDS011;22332;51.954;20.118;2024-03-02T09:16:22;38.70;;;23.90;;
35847;SDS011;22332;51.954;20.118;2024-03-02T09:19:33;38.20;;;25.80;;
35847;SDS011;22332;51.954;20.118;2024-03-02T09:22:38;37.30;;;24.50;;
35847;SDS011;22332;51.954;20.118;2024-03-02T09:25:44;37.60;;;24.20;;
35847;SDS011;22332;51.954;20.118;2024-03-02T09:28:50;36.80;;;24.00;;
35847;SDS011;22332;51.954;20.118;2024-03-02T09:31:56;40.40;;;25.80;;
35847;SDS011;22332;51.954;20.118;2024-03-02T09:35:01;42.10;;;26.80;;
35847;SDS011;22332;51.954;20.118;2024-03-02T09:38:07;38.00;;;25.40;;
35847;SDS011;22332;51.954;20.118;2024-03-02T09:41:13;42.40;;;28.40;;
35847;SDS011;22332;51.954;20.118;2024-03-02T09:44:19;40.50;;;26.60;;
35847;SDS011;22332;51.954;20.118;2024-03-02T09:47:25;39.50;;;26.20;;
35847;SDS011;22332;51.954;20.118;2024-03-02T09:50:30;40.80;;;25.50;;
35847;SDS011;22332;51.954;20.118;2024-03-02T09:53:36;43.50;;;26.70;;
35847;SDS011;22332;51.954;20.118;2024-03-02T09:56:42;41.20;;;26.80;;
35847;SDS011;22332;51.954;20.118;2024-03-02T09:59:48;41.50;;;26.80;;
35847;SDS011;22332;51.954;20.118;2024-03-02T10:02:53;43.80;;;27.60;;
35847;SDS011;22332;51.954;20.118;2024-03-02T10:09:30;48.20;;;30.40;;
35847;SDS011;22332;51.954;20.118;2024-03-02T10:12:35;46.30;;;29.50;;
35847;SDS011;22332;51.954;20.118;2024-03-02T10:15:41;48.30;;;29.60;;
35847;SDS011;22332;51.954;20.118;2024-03-02T10:18:46;43.70;;;27.00;;
35847;SDS011;22332;51.954;20.118;2024-03-02T10:21:52;45.00;;;28.10;;
35847;SDS011;22332;51.954;20.118;2024-03-02T10:24:59;47.80;;;29.50;;
35847;SDS011;22332;51.954;20.118;2024-03-02T10:28:05;42.90;;;28.50;;
35847;SDS011;22332;51.954;20.118;2024-03-02T10:31:11;51.80;;;31.20;;
35847;SDS011;22332;51.954;20.118;2024-03-02T10:34:16;48.80;;;30.80;;
35847;SDS011;22332;51.954;20.118;2024-03-02T10:37:22;51.20;;;32.10;;
35847;SDS011;22332;51.954;20.118;2024-03-02T10:40:29;53.50;;;33.50;;
35847;SDS011;22332;51.954;20.118;2024-03-02T10:43:35;54.10;;;31.00;;
35847;SDS011;22332;51.954;20.118;2024-03-02T10:46:41;50.50;;;30.10;;
35847;SDS011;22332;51.954;20.118;2024-03-02T10:49:49;53.30;;;31.80;;
35847;SDS011;22332;51.954;20.118;2024-03-02T10:52:58;51.50;;;32.40;;
35847;SDS011;22332;51.954;20.118;2024-03-02T10:56:04;55.50;;;33.50;;
35847;SDS011;22332;51.954;20.118;2024-03-02T10:59:15;50.80;;;31.80;;
35847;SDS011;22332;51.954;20.118;2024-03-02T11:02:27;50.90;;;32.50;;
35847;SDS011;22332;51.954;20.118;2024-03-02T11:05:36;54.30;;;31.50;;
35847;SDS011;22332;51.954;20.118;2024-03-02T11:08:44;53.80;;;34.20;;
35847;SDS011;22332;51.954;20.118;2024-03-02T11:11:56;54.40;;;32.30;;
35847;SDS011;22332;51.954;20.118;2024-03-02T11:15:08;52.30;;;30.80;;
35847;SDS011;22332;51.954;20.118;2024-03-02T11:18:20;47.60;;;28.40;;
35847;SDS011;22332;51.954;20.118;2024-03-02T11:21:26;47.80;;;28.30;;
35847;SDS011;22332;51.954;20.118;2024-03-02T11:24:32;45.00;;;28.20;;
35847;SDS011;22332;51.954;20.118;2024-03-02T11:31:05;51.70;;;31.60;;
35847;SDS011;22332;51.954;20.118;2024-03-02T11:34:25;48.70;;;29.40;;
35847;SDS011;22332;51.954;20.118;2024-03-02T11:37:34;54.10;;;32.40;;
35847;SDS011;22332;51.954;20.118;2024-03-02T11:40:40;55.00;;;33.40;;
35847;SDS011;22332;51.954;20.118;2024-03-02T11:43:46;57.00;;;33.30;;
35847;SDS011;22332;51.954;20.118;2024-03-02T11:46:53;59.70;;;33.50;;
35847;SDS011;22332;51.954;20.118;2024-03-02T11:50:03;59.80;;;33.40;;
35847;SDS011;22332;51.954;20.118;2024-03-02T11:53:10;57.80;;;34.80;;
35847;SDS011;22332;51.954;20.118;2024-03-02T11:56:16;71.50;;;38.50;;
35847;SDS011;22332;51.954;20.118;2024-03-02T11:59:22;73.20;;;38.70;;
35847;SDS011;22332;51.954;20.118;2024-03-02T12:02:29;72.10;;;39.40;;
35847;SDS011;22332;51.954;20.118;2024-03-02T12:05:35;68.10;;;39.60;;
35847;SDS011;22332;51.954;20.118;2024-03-02T12:08:41;70.10;;;41.30;;
35847;SDS011;22332;51.954;20.118;2024-03-02T12:11:46;72.00;;;40.40;;
35847;SDS011;22332;51.954;20.118;2024-03-02T12:15:05;73.50;;;40.40;;
35847;SDS011;22332;51.954;20.118;2024-03-02T12:18:12;70.70;;;39.70;;
35847;SDS011;22332;51.954;20.118;2024-03-02T12:21:18;71.50;;;38.60;;
35847;SDS011;22332;51.954;20.118;2024-03-02T12:24:24;67.60;;;36.60;;
35847;SDS011;22332;51.954;20.118;2024-03-02T12:27:30;63.30;;;36.90;;
35847;SDS011;22332;51.954;20.118;2024-03-02T12:30:36;66.00;;;37.50;;
35847;SDS011;22332;51.954;20.118;2024-03-02T12:33:43;77.20;;;44.40;;
35847;SDS011;22332;51.954;20.118;2024-03-02T12:36:51;71.40;;;40.00;;
35847;SDS011;22332;51.954;20.118;2024-03-02T12:39:56;64.80;;;38.50;;
35847;SDS011;22332;51.954;20.118;2024-03-02T12:43:02;63.60;;;37.90;;
35847;SDS011;22332;51.954;20.118;2024-03-02T12:46:10;68.50;;;38.20;;
35847;SDS011;22332;51.954;20.118;2024-03-02T12:49:16;70.70;;;38.90;;
35847;SDS011;22332;51.954;20.118;2024-03-02T12:52:26;73.90;;;41.70;;
35847;SDS011;22332;51.954;20.118;2024-03-02T12:55:31;70.70;;;38.50;;
35847;SDS011;22332;51.954;20.118;2024-03-02T12:58:40;71.00;;;39.00;;
35847;SDS011;22332;51.954;20.118;2024-03-02T13:01:51;72.00;;;41.70;;
35847;SDS011;22332;51.954;20.118;2024-03-02T13:04:57;65.70;;;37.50;;
35847;SDS011;22332;51.954;20.118;2024-03-02T13:08:03;68.90;;;38.40;;
35847;SDS011;22332;51.954;20.118;2024-03-02T13:11:10;66.60;;;39.80;;
35847;SDS011;22332;51.954;20.118;2024-03-02T13:14:16;62.30;;;37.70;;
35847;SDS011;22332;51.954;20.118;2024-03-02T13:17:22;63.90;;;37.20;;
35847;SDS011;22332;51.954;20.118;2024-03-02T13:20:31;73.50;;;39.30;;
35847;SDS011;22332;51.954;20.118;2024-03-02T13:23:38;66.70;;;38.70;;
35847;SDS011;22332;51.954;20.118;2024-03-02T13:26:43;72.60;;;39.30;;
35847;SDS011;22332;51.954;20.118;2024-03-02T13:29:49;71.00;;;41.70;;
35847;SDS011;22332;51.954;20.118;2024-03-02T13:32:55;76.70;;;41.70;;
35847;SDS011;22332;51.954;20.118;2024-03-02T13:36:00;72.80;;;39.90;;
35847;SDS011;22332;51.954;20.118;2024-03-02T13:39:07;70.30;;;40.20;;
35847;SDS011;22332;51.954;20.118;2024-03-02T13:42:13;73.30;;;41.00;;
35847;SDS011;22332;51.954;20.118;2024-03-02T13:45:19;67.70;;;40.80;;
35847;SDS011;22332;51.954;20.118;2024-03-02T13:48:25;66.40;;;39.50;;
35847;SDS011;22332;51.954;20.118;2024-03-02T13:51:30;67.30;;;40.90;;
35847;SDS011;22332;51.954;20.118;2024-03-02T13:54:37;64.60;;;38.20;;
35847;SDS011;22332;51.954;20.118;2024-03-02T13:57:44;67.40;;;38.90;;
35847;SDS011;22332;51.954;20.118;2024-03-02T14:00:52;74.80;;;42.50;;
35847;SDS011;22332;51.954;20.118;2024-03-02T14:03:59;80.60;;;44.30;;
35847;SDS011;22332;51.954;20.118;2024-03-02T14:07:05;72.70;;;42.40;;
35847;SDS011;22332;51.954;20.118;2024-03-02T14:10:11;66.50;;;38.90;;
35847;SDS011;22332;51.954;20.118;2024-03-02T14:13:17;61.90;;;36.80;;
35847;SDS011;22332;51.954;20.118;2024-03-02T14:16:23;64.00;;;36.40;;
35847;SDS011;22332;51.954;20.118;2024-03-02T14:19:28;56.60;;;34.40;;
35847;SDS011;22332;51.954;20.118;2024-03-02T14:22:34;60.20;;;37.00;;
35847;SDS011;22332;51.954;20.118;2024-03-02T14:25:40;53.60;;;35.60;;
35847;SDS011;22332;51.954;20.118;2024-03-02T14:28:46;62.60;;;37.50;;
35847;SDS011;22332;51.954;20.118;2024-03-02T14:31:51;58.30;;;36.40;;
35847;SDS011;22332;51.954;20.118;2024-03-02T14:34:57;59.00;;;36.60;;
35847;SDS011;22332;51.954;20.118;2024-03-02T14:38:03;69.00;;;39.40;;
35847;SDS011;22332;51.954;20.118;2024-03-02T14:41:09;75.70;;;42.20;;
35847;SDS011;22332;51.954;20.118;2024-03-02T14:44:17;73.50;;;41.30;;
35847;SDS011;22332;51.954;20.118;2024-03-02T14:47:25;68.20;;;38.80;;
35847;SDS011;22332;51.954;20.118;2024-03-02T14:50:30;118.00;;;52.20;;
35847;SDS011;22332;51.954;20.118;2024-03-02T14:53:36;87.60;;;53.50;;
35847;SDS011;22332;51.954;20.118;2024-03-02T14:56:42;73.10;;;43.60;;
35847;SDS011;22332;51.954;20.118;2024-03-02T14:59:48;63.50;;;38.10;;
35847;SDS011;22332;51.954;20.118;2024-03-02T15:02:53;73.30;;;44.80;;
35847;SDS011;22332;51.954;20.118;2024-03-02T15:05:59;101.00;;;53.90;;
35847;SDS011;22332;51.954;20.118;2024-03-02T15:09:07;76.10;;;43.70;;
35847;SDS011;22332;51.954;20.118;2024-03-02T15:12:12;68.10;;;41.10;;
35847;SDS011;22332;51.954;20.118;2024-03-02T15:15:18;79.50;;;45.60;;
35847;SDS011;22332;51.954;20.118;2024-03-02T15:18:23;63.80;;;37.20;;
35847;SDS011;22332;51.954;20.118;2024-03-02T15:21:30;59.20;;;35.10;;
35847;SDS011;22332;51.954;20.118;2024-03-02T15:24:35;63.70;;;40.30;;
35847;SDS011;22332;51.954;20.118;2024-03-02T15:27:41;63.10;;;37.30;;
35847;SDS011;22332;51.954;20.118;2024-03-02T15:30:47;58.90;;;36.50;;
35847;SDS011;22332;51.954;20.118;2024-03-02T15:33:52;62.80;;;39.40;;
35847;SDS011;22332;51.954;20.118;2024-03-02T15:36:59;59.00;;;36.50;;
35847;SDS011;22332;51.954;20.118;2024-03-02T15:40:07;54.30;;;35.30;;
35847;SDS011;22332;51.954;20.118;2024-03-02T15:43:14;54.40;;;35.60;;
35847;SDS011;22332;51.954;20.118;2024-03-02T15:46:20;56.80;;;34.30;;
35847;SDS011;22332;51.954;20.118;2024-03-02T15:49:25;56.60;;;34.90;;
35847;SDS011;22332;51.954;20.118;2024-03-02T15:52:31;51.00;;;32.40;;
35847;SDS011;22332;51.954;20.118;2024-03-02T15:55:37;61.50;;;36.50;;
35847;SDS011;22332;51.954;20.118;2024-03-02T15:58:43;54.80;;;35.50;;
35847;SDS011;22332;51.954;20.118;2024-03-02T16:01:49;56.20;;;35.20;;
35847;SDS011;22332;51.954;20.118;2024-03-02T16:04:55;54.60;;;33.00;;
35847;SDS011;22332;51.954;20.118;2024-03-02T16:08:00;58.40;;;36.10;;
35847;SDS011;22332;51.954;20.118;2024-03-02T16:11:07;56.20;;;34.70;;
35847;SDS011;22332;51.954;20.118;2024-03-02T16:14:13;54.60;;;33.50;;
35847;SDS011;22332;51.954;20.118;2024-03-02T16:17:19;55.00;;;34.10;;
35847;SDS011;22332;51.954;20.118;2024-03-02T16:20:25;50.80;;;32.40;;
35847;SDS011;22332;51.954;20.118;2024-03-02T16:23:30;56.80;;;34.50;;
35847;SDS011;22332;51.954;20.118;2024-03-02T16:26:36;64.60;;;38.20;;
35847;SDS011;22332;51.954;20.118;2024-03-02T16:29:42;70.60;;;42.70;;
35847;SDS011;22332;51.954;20.118;2024-03-02T16:32:49;57.00;;;36.00;;
35847;SDS011;22332;51.954;20.118;2024-03-02T16:35:55;51.00;;;33.70;;
35847;SDS011;22332;51.954;20.118;2024-03-02T16:39:00;51.30;;;31.20;;
35847;SDS011;22332;51.954;20.118;2024-03-02T16:42:07;45.30;;;28.80;;
35847;SDS011;22332;51.954;20.118;2024-03-02T16:45:12;53.50;;;33.00;;
35847;SDS011;22332;51.954;20.118;2024-03-02T16:48:18;45.60;;;30.10;;
35847;SDS011;22332;51.954;20.118;2024-03-02T16:51:23;48.00;;;31.20;;
35847;SDS011;22332;51.954;20.118;2024-03-02T16:54:29;49.30;;;30.60;;
35847;SDS011;22332;51.954;20.118;2024-03-02T16:57:35;51.50;;;32.30;;
35847;SDS011;22332;51.954;20.118;2024-03-02T17:00:40;47.90;;;30.90;;
35847;SDS011;22332;51.954;20.118;2024-03-02T17:03:47;50.30;;;30.80;;
35847;SDS011;22332;51.954;20.118;2024-03-02T17:06:53;49.60;;;30.50;;
35847;SDS011;22332;51.954;20.118;2024-03-02T17:09:59;47.00;;;31.00;;
35847;SDS011;22332;51.954;20.118;2024-03-02T17:13:07;51.40;;;32.50;;
35847;SDS011;22332;51.954;20.118;2024-03-02T17:16:12;53.50;;;33.80;;
35847;SDS011;22332;51.954;20.118;2024-03-02T17:19:18;51.60;;;35.00;;
35847;SDS011;22332;51.954;20.118;2024-03-02T17:22:24;51.90;;;33.10;;
35847;SDS011;22332;51.954;20.118;2024-03-02T17:25:29;55.60;;;34.30;;
35847;SDS011;22332;51.954;20.118;2024-03-02T17:28:36;52.00;;;32.70;;
35847;SDS011;22332;51.954;20.118;2024-03-02T17:31:43;52.50;;;30.80;;
35847;SDS011;22332;51.954;20.118;2024-03-02T17:34:49;53.50;;;33.30;;
35847;SDS011;22332;51.954;20.118;2024-03-02T17:37:54;54.00;;;32.90;;
35847;SDS011;22332;51.954;20.118;2024-03-02T17:41:00;51.50;;;32.40;;
35847;SDS011;22332;51.954;20.118;2024-03-02T17:44:07;53.20;;;33.50;;
35847;SDS011;22332;51.954;20.118;2024-03-02T17:47:13;58.20;;;33.00;;
35847;SDS011;22332;51.954;20.118;2024-03-02T17:50:19;50.50;;;30.50;;
35847;SDS011;22332;51.954;20.118;2024-03-02T17:53:24;52.50;;;31.80;;
35847;SDS011;22332;51.954;20.118;2024-03-02T17:56:30;52.60;;;30.10;;
35847;SDS011;22332;51.954;20.118;2024-03-02T17:59:35;58.20;;;34.30;;
35847;SDS011;22332;51.954;20.118;2024-03-02T18:02:46;50.50;;;32.70;;